Time;durP1;ratioP1;P1;durP2;ratioP2;P2;SDS_P1;SDS_P2;PMS_P1;PMS_P2;Temp;Humidity;BMP_temperature;BMP_pressure;BME280_temperature;BME280_humidity;BME280_pressure;Samples;Min_cycle;Max_cycle;Signal;HPM_P1;HPM_P2
2023/09/04 00:01:12;;;;;;;6.30;5.80;;;;;;;;;;5040526;28;20041;-86
2023/09/04 00:03:39;;;;;;;6.82;5.60;;;;;;;;;;5063744;28;22085;-87
2023/09/04 00:06:05;;;;;;;10.40;6.93;;;;;;;;;;5026351;28;20032;-87
2023/09/04 00:08:31;;;;;;;9.23;8.32;;;;;;;;;;5026820;28;20541;-87
2023/09/04 00:10:57;;;;;;;12.93;9.10;;;;;;;;;;5025228;28;20060;-86
2023/09/04 00:13:23;;;;;;;10.10;9.10;;;;;;;;;;5045105;28;20190;-87
2023/09/04 00:15:53;;;;;;;12.43;10.85;;;;;;;;;;5043009;28;20048;-87
2023/09/04 00:18:19;;;;;;;17.02;11.43;;;;;;;;;;5026700;28;20106;-86
2023/09/04 00:20:45;;;;;;;16.95;13.18;;;;;;;;;;5027757;28;20044;-87
2023/09/04 00:23:11;;;;;;;16.35;14.60;;;;;;;;;;5031563;28;20041;-87
2023/09/04 00:25:38;;;;;;;12.68;11.27;;;;;;;;;;5046690;28;20109;-85
2023/09/04 00:28:04;;;;;;;14.23;12.65;;;;;;;;;;5026593;28;20065;-86
2023/09/04 00:30:30;;;;;;;12.30;10.95;;;;;;;;;;5028995;28;20119;-86
2023/09/04 00:32:56;;;;;;;13.02;11.68;;;;;;;;;;5028453;28;20045;-86
2023/09/04 00:35:22;;;;;;;12.32;11.02;;;;;;;;;;5041543;28;20037;-86
2023/09/04 00:37:49;;;;;;;13.18;11.88;;;;;;;;;;5038742;28;20056;-86
2023/09/04 00:40:15;;;;;;;15.70;12.55;;;;;;;;;;5056621;28;20127;-86
2023/09/04 00:42:41;;;;;;;14.68;12.85;;;;;;;;;;5040194;28;20514;-86
2023/09/04 00:45:11;;;;;;;15.05;13.55;;;;;;;;;;5046573;28;20123;-87
2023/09/04 00:47:38;;;;;;;12.65;11.27;;;;;;;;;;5026879;28;20073;-85
2023/09/04 00:50:04;;;;;;;13.10;11.68;;;;;;;;;;5041003;28;20419;-85
2023/09/04 00:52:30;;;;;;;13.65;12.18;;;;;;;;;;5013553;28;20039;-86
2023/09/04 00:54:56;;;;;;;16.60;11.93;;;;;;;;;;5036016;28;20083;-86
2023/09/04 00:57:23;;;;;;;15.77;12.50;;;;;;;;;;5027674;28;20033;-86
2023/09/04 00:59:49;;;;;;;21.13;18.05;;;;;;;;;;5033381;28;20073;-86
2023/09/04 01:02:15;;;;;;;20.95;18.83;;;;;;;;;;5042788;28;20033;-86
2023/09/04 01:04:41;;;;;;;25.02;19.90;;;;;;;;;;5027187;28;20045;-86
2023/09/04 01:07:07;;;;;;;22.08;19.45;;;;;;;;;;5041836;28;20033;-86
2023/09/04 01:09:34;;;;;;;17.90;15.52;;;;;;;;;;5042655;28;20747;-85
2023/09/04 01:12:02;;;;;;;16.15;14.55;;;;;;;;;;5026156;28;20091;-85
2023/09/04 01:14:29;;;;;;;17.08;15.30;;;;;;;;;;5026710;28;20469;-85
2023/09/04 01:16:55;;;;;;;15.60;13.93;;;;;;;;;;5060475;28;20041;-85
2023/09/04 01:19:21;;;;;;;20.35;14.60;;;;;;;;;;5045898;28;20048;-85
2023/09/04 01:21:47;;;;;;;16.73;15.13;;;;;;;;;;5061519;28;20036;-86
2023/09/04 01:24:13;;;;;;;17.35;14.70;;;;;;;;;;5042559;28;20041;-86
2023/09/04 01:26:48;;;;;;;15.63;14.07;;;;;;;;;;5042597;28;20052;-86
2023/09/04 01:29:26;;;;;;;17.98;16.08;;;;;;;;;;5024456;28;20043;-85
2023/09/04 01:31:56;;;;;;;17.85;16.00;;;;;;;;;;5044519;28;20041;-85
2023/09/04 01:34:27;;;;;;;17.63;15.25;;;;;;;;;;5038565;28;20041;-86
2023/09/04 01:36:54;;;;;;;20.20;16.65;;;;;;;;;;5072859;28;20045;-86
2023/09/04 01:39:21;;;;;;;18.15;16.25;;;;;;;;;;5032577;28;20075;-85
2023/09/04 01:41:47;;;;;;;18.73;13.98;;;;;;;;;;5056005;28;20045;-85
2023/09/04 01:44:14;;;;;;;18.25;14.23;;;;;;;;;;5042790;28;20040;-85
2023/09/04 01:46:41;;;;;;;17.27;12.77;;;;;;;;;;5036787;28;20044;-85
2023/09/04 01:49:07;;;;;;;16.00;12.45;;;;;;;;;;5042810;28;20048;-85
2023/09/04 01:51:33;;;;;;;13.27;11.85;;;;;;;;;;5025316;28;20032;-85
2023/09/04 01:53:59;;;;;;;11.15;9.70;;;;;;;;;;5022625;28;20085;-85
2023/09/04 01:56:26;;;;;;;13.63;8.95;;;;;;;;;;5028358;28;20063;-85
2023/09/04 01:58:52;;;;;;;9.10;8.20;;;;;;;;;;5041271;28;20805;-85
2023/09/04 02:01:18;;;;;;;7.60;6.80;;;;;;;;;;5041492;28;20041;-85
2023/09/04 02:03:44;;;;;;;10.40;9.40;;;;;;;;;;5041272;28;20127;-85
2023/09/04 02:06:10;;;;;;;11.00;9.55;;;;;;;;;;5042716;28;20052;-85
2023/09/04 02:08:36;;;;;;;10.30;9.23;;;;;;;;;;5058783;28;20041;-85
2023/09/04 02:11:03;;;;;;;13.55;12.15;;;;;;;;;;5039259;28;20068;-85
2023/09/04 02:13:29;;;;;;;16.70;14.02;;;;;;;;;;5011309;28;20033;-85
2023/09/04 02:15:55;;;;;;;16.38;14.50;;;;;;;;;;5042264;28;20047;-85
2023/09/04 02:18:21;;;;;;;16.58;14.85;;;;;;;;;;5041258;28;20040;-85
2023/09/04 02:20:47;;;;;;;16.65;14.43;;;;;;;;;;5041148;28;20120;-85
2023/09/04 02:23:13;;;;;;;13.68;12.20;;;;;;;;;;5025692;28;20037;-85
2023/09/04 02:25:39;;;;;;;11.55;10.35;;;;;;;;;;5057205;28;20370;-84
2023/09/04 02:28:05;;;;;;;11.50;10.20;;;;;;;;;;5059377;28;20040;-85
2023/09/04 02:30:31;;;;;;;11.43;10.20;;;;;;;;;;5042384;28;20041;-85
2023/09/04 02:32:59;;;;;;;12.27;10.65;;;;;;;;;;5025070;28;20072;-85
2023/09/04 02:35:26;;;;;;;12.68;10.98;;;;;;;;;;5004009;28;20041;-85
2023/09/04 02:37:52;;;;;;;10.93;9.90;;;;;;;;;;5055989;28;20070;-85
2023/09/04 02:40:18;;;;;;;12.85;11.45;;;;;;;;;;5039827;28;20083;-85
2023/09/04 02:42:44;;;;;;;12.77;11.32;;;;;;;;;;5033530;28;20453;-85
2023/09/04 02:45:10;;;;;;;14.25;11.55;;;;;;;;;;5046975;28;20101;-86
2023/09/04 02:47:37;;;;;;;12.80;11.55;;;;;;;;;;5045054;28;20041;-86
2023/09/04 02:50:05;;;;;;;12.75;11.30;;;;;;;;;;5047193;28;20561;-86
2023/09/04 02:52:31;;;;;;;12.25;11.02;;;;;;;;;;5047128;28;20075;-86
2023/09/04 02:55:00;;;;;;;12.68;11.40;;;;;;;;;;5033818;28;20047;-85
2023/09/04 02:57:26;;;;;;;16.95;15.10;;;;;;;;;;5044787;28;20036;-85
2023/09/04 02:59:53;;;;;;;16.65;14.40;;;;;;;;;;5028597;28;20120;-85
2023/09/04 03:02:19;;;;;;;17.38;14.13;;;;;;;;;;5027880;28;20040;-85
2023/09/04 03:04:45;;;;;;;15.25;13.65;;;;;;;;;;5070257;28;20044;-85
2023/09/04 03:07:11;;;;;;;14.88;13.40;;;;;;;;;;5047313;28;20120;-85
2023/09/04 03:09:37;;;;;;;22.05;18.33;;;;;;;;;;5015651;28;20125;-85
2023/09/04 03:12:03;;;;;;;21.10;18.73;;;;;;;;;;5029334;28;20036;-84
2023/09/04 03:14:29;;;;;;;21.30;18.95;;;;;;;;;;5040815;28;20206;-85
2023/09/04 03:16:55;;;;;;;21.20;18.58;;;;;;;;;;5041169;28;20094;-85
2023/09/04 03:19:21;;;;;;;17.58;15.68;;;;;;;;;;5038902;28;20032;-84
2023/09/04 03:21:48;;;;;;;21.45;18.77;;;;;;;;;;5028096;28;20057;-84
2023/09/04 03:24:15;;;;;;;23.17;19.17;;;;;;;;;;5043888;28;20044;-85
2023/09/04 03:26:41;;;;;;;22.15;18.35;;;;;;;;;;5045375;28;20374;-85
2023/09/04 03:29:07;;;;;;;20.55;18.45;;;;;;;;;;5026402;28;20068;-84
2023/09/04 03:31:33;;;;;;;17.83;15.90;;;;;;;;;;5031963;28;20077;-85
2023/09/04 03:34:00;;;;;;;18.08;16.30;;;;;;;;;;5045710;28;20044;-85
2023/09/04 03:36:26;;;;;;;18.85;16.02;;;;;;;;;;5046373;28;20793;-84
2023/09/04 03:38:52;;;;;;;17.55;14.32;;;;;;;;;;5055501;28;20083;-84
2023/09/04 03:41:18;;;;;;;17.05;15.15;;;;;;;;;;5029435;28;20075;-84
2023/09/04 03:43:44;;;;;;;17.33;15.50;;;;;;;;;;5038890;28;20120;-84
2023/09/04 03:46:14;;;;;;;18.80;16.27;;;;;;;;;;5041675;28;20677;-84
2023/09/04 03:48:40;;;;;;;18.65;16.65;;;;;;;;;;5039561;28;22157;-84
2023/09/04 03:51:06;;;;;;;19.88;17.58;;;;;;;;;;5041281;28;20044;-84
2023/09/04 03:53:32;;;;;;;19.75;16.63;;;;;;;;;;5040747;28;20101;-84
2023/09/04 03:56:05;;;;;;;17.35;15.23;;;;;;;;;;5015069;28;20037;-85
2023/09/04 03:58:31;;;;;;;18.02;15.90;;;;;;;;;;5041560;28;20523;-85
2023/09/04 04:00:57;;;;;;;16.95;15.25;;;;;;;;;;5042114;28;20037;-84
2023/09/04 04:03:24;;;;;;;17.63;14.52;;;;;;;;;;5060463;28;20040;-84
2023/09/04 04:05:50;;;;;;;16.75;14.75;;;;;;;;;;5023292;28;20032;-85
2023/09/04 04:08:16;;;;;;;17.95;14.52;;;;;;;;;;5008212;28;20793;-85
2023/09/04 04:10:44;;;;;;;18.92;16.80;;;;;;;;;;5039575;28;20121;-85
2023/09/04 04:13:12;;;;;;;20.10;17.80;;;;;;;;;;5025188;28;20055;-84
2023/09/04 04:15:38;;;;;;;21.10;17.08;;;;;;;;;;5039641;28;23305;-84
2023/09/04 04:18:05;;;;;;;17.13;15.20;;;;;;;;;;5034488;28;20052;-85
2023/09/04 04:20:31;;;;;;;16.00;14.15;;;;;;;;;;5052713;28;20117;-86
2023/09/04 04:22:57;;;;;;;17.00;15.20;;;;;;;;;;5036118;28;20051;-82
2023/09/04 04:25:23;;;;;;;16.48;14.70;;;;;;;;;;5024068;28;20901;-84
2023/09/04 04:27:50;;;;;;;18.08;14.10;;;;;;;;;;5030523;28;20072;-87
2023/09/04 04:30:16;;;;;;;15.43;13.82;;;;;;;;;;5016731;28;20052;-90
2023/09/04 04:32:43;;;;;;;18.20;16.30;;;;;;;;;;5019707;28;21356;-89
2023/09/04 04:35:10;;;;;;;20.58;17.27;;;;;;;;;;5044864;28;20143;-90
2023/09/04 04:37:36;;;;;;;20.17;18.08;;;;;;;;;;5042121;28;20500;-90
2023/09/04 04:40:05;;;;;;;23.48;19.35;;;;;;;;;;5039925;28;20036;-89
2023/09/04 04:42:31;;;;;;;21.00;18.85;;;;;;;;;;5039634;28;20049;-88
2023/09/04 04:44:57;;;;;;;22.77;18.20;;;;;;;;;;5046682;28;20091;-88
2023/09/04 04:47:23;;;;;;;17.73;15.90;;;;;;;;;;5039455;28;20037;-87
2023/09/04 04:49:49;;;;;;;16.15;14.48;;;;;;;;;;5037529;28;20047;-88
2023/09/04 04:52:15;;;;;;;16.77;15.07;;;;;;;;;;5019486;28;20040;-89
2023/09/04 04:54:41;;;;;;;20.45;18.25;;;;;;;;;;5053318;28;20127;-88
2023/09/04 04:57:08;;;;;;;19.73;17.70;;;;;;;;;;5004819;28;20661;-89
2023/09/04 04:59:36;;;;;;;15.60;14.05;;;;;;;;;;5052786;28;20047;-89
2023/09/04 05:02:02;;;;;;;21.15;15.98;;;;;;;;;;5033817;28;20051;-89
2023/09/04 05:04:28;;;;;;;20.17;17.88;;;;;;;;;;5022516;28;20082;-89
2023/09/04 05:06:54;;;;;;;19.73;17.45;;;;;;;;;;5018948;28;20715;-90
2023/09/04 05:09:21;;;;;;;26.60;18.20;;;;;;;;;;5035246;28;20079;-90
2023/09/04 05:11:47;;;;;;;20.02;17.63;;;;;;;;;;5019467;28;20095;-89
2023/09/04 05:14:13;;;;;;;20.45;16.65;;;;;;;;;;5038890;28;20041;-89
2023/09/04 05:16:39;;;;;;;20.02;17.13;;;;;;;;;;5036227;28;20041;-89
2023/09/04 05:19:05;;;;;;;24.13;17.88;;;;;;;;;;5035577;28;20041;-88
2023/09/04 05:21:31;;;;;;;19.77;16.67;;;;;;;;;;5024229;28;20998;-89
2023/09/04 05:23:57;;;;;;;21.55;16.65;;;;;;;;;;5056832;28;20044;-89
2023/09/04 05:26:24;;;;;;;17.75;15.68;;;;;;;;;;5024752;28;20055;-89
2023/09/04 05:28:50;;;;;;;19.90;16.10;;;;;;;;;;5038054;28;20976;-89
2023/09/04 05:31:17;;;;;;;18.15;15.93;;;;;;;;;;5037345;28;20079;-89
2023/09/04 05:33:43;;;;;;;17.10;14.93;;;;;;;;;;5036999;28;20036;-88
2023/09/04 05:36:10;;;;;;;17.85;15.25;;;;;;;;;;5052445;28;20033;-89
2023/09/04 05:38:37;;;;;;;17.63;15.82;;;;;;;;;;5018587;28;20041;-89
2023/09/04 05:41:03;;;;;;;18.63;15.68;;;;;;;;;;5024019;28;20052;-89
2023/09/04 05:43:29;;;;;;;19.10;17.10;;;;;;;;;;5038315;28;20731;-89
2023/09/04 05:45:57;;;;;;;20.05;16.02;;;;;;;;;;5036753;28;21872;-89
2023/09/04 05:48:23;;;;;;;23.23;16.67;;;;;;;;;;5035221;28;20127;-89
2023/09/04 05:50:49;;;;;;;18.60;16.35;;;;;;;;;;5011793;28;20044;-88
2023/09/04 05:53:15;;;;;;;18.98;16.25;;;;;;;;;;5053950;28;20429;-88
2023/09/04 05:55:42;;;;;;;21.05;16.08;;;;;;;;;;5032907;28;20079;-88
2023/09/04 05:58:10;;;;;;;17.92;15.60;;;;;;;;;;5036520;28;21976;-88
2023/09/04 06:00:36;;;;;;;16.67;14.40;;;;;;;;;;5016085;28;20037;-89
2023/09/04 06:03:02;;;;;;;16.25;14.15;;;;;;;;;;5036987;28;20507;-88
2023/09/04 06:05:29;;;;;;;15.85;14.10;;;;;;;;;;5019202;28;20048;-89
2023/09/04 06:07:56;;;;;;;17.50;15.35;;;;;;;;;;5037585;28;20435;-88
2023/09/04 06:10:22;;;;;;;16.23;14.52;;;;;;;;;;5026422;28;20083;-88
2023/09/04 06:12:48;;;;;;;17.33;15.52;;;;;;;;;;5009260;28;20103;-89
2023/09/04 06:15:14;;;;;;;20.42;16.33;;;;;;;;;;5033111;28;20040;-88
2023/09/04 06:17:40;;;;;;;19.15;15.55;;;;;;;;;;5022757;28;20045;-89
2023/09/04 06:20:07;;;;;;;19.20;16.05;;;;;;;;;;5041562;28;20029;-89
2023/09/04 06:22:33;;;;;;;17.23;15.48;;;;;;;;;;5039724;28;20051;-88
2023/09/04 06:25:02;;;;;;;18.25;15.45;;;;;;;;;;5048987;28;20056;-89
2023/09/04 06:27:28;;;;;;;18.35;16.25;;;;;;;;;;5038741;28;20044;-88
2023/09/04 06:29:54;;;;;;;20.08;16.90;;;;;;;;;;5019225;28;20676;-88
2023/09/04 06:32:20;;;;;;;24.20;16.58;;;;;;;;;;5009779;28;20048;-88
2023/09/04 06:34:46;;;;;;;22.45;15.57;;;;;;;;;;5022318;28;20392;-89
2023/09/04 06:37:13;;;;;;;19.58;15.88;;;;;;;;;;5022210;28;20554;-88
2023/09/04 06:39:39;;;;;;;18.45;14.80;;;;;;;;;;5015852;28;20126;-89
2023/09/04 06:42:05;;;;;;;17.08;13.65;;;;;;;;;;5018988;28;20643;-88
2023/09/04 06:44:32;;;;;;;16.80;13.18;;;;;;;;;;5018907;28;20140;-89
2023/09/04 06:46:58;;;;;;;17.48;12.23;;;;;;;;;;5019466;28;20396;-86
2023/09/04 06:49:24;;;;;;;12.38;11.13;;;;;;;;;;5020993;28;20430;-88
2023/09/04 06:51:50;;;;;;;13.93;11.02;;;;;;;;;;5024010;28;20053;-88
2023/09/04 06:54:16;;;;;;;15.57;11.88;;;;;;;;;;5021983;28;20041;-88
2023/09/04 06:56:43;;;;;;;12.02;10.85;;;;;;;;;;5040070;28;20045;-88
2023/09/04 06:59:09;;;;;;;11.70;10.50;;;;;;;;;;5013274;28;20045;-88
2023/09/04 07:01:35;;;;;;;11.68;10.05;;;;;;;;;;5010116;28;20048;-89
2023/09/04 07:04:01;;;;;;;12.05;10.63;;;;;;;;;;4990995;28;20075;-89
2023/09/04 07:06:27;;;;;;;11.98;10.43;;;;;;;;;;4991314;28;20568;-88
2023/09/04 07:08:53;;;;;;;11.07;9.98;;;;;;;;;;5006095;28;20414;-88
2023/09/04 07:11:19;;;;;;;11.00;9.90;;;;;;;;;;5021917;28;21586;-87
2023/09/04 07:13:45;;;;;;;11.05;9.95;;;;;;;;;;5025824;28;20527;-87
2023/09/04 07:16:11;;;;;;;12.18;9.65;;;;;;;;;;5026213;28;20045;-88
2023/09/04 07:18:38;;;;;;;10.00;9.00;;;;;;;;;;5023182;28;20420;-89
2023/09/04 07:21:04;;;;;;;10.02;8.98;;;;;;;;;;5023220;28;20049;-87
2023/09/04 07:23:30;;;;;;;12.43;8.55;;;;;;;;;;5048202;28;20124;-88
2023/09/04 07:25:57;;;;;;;9.60;8.60;;;;;;;;;;5016269;28;20052;-89
2023/09/04 07:28:23;;;;;;;9.27;8.45;;;;;;;;;;5015381;28;20285;-87
2023/09/04 07:30:49;;;;;;;15.70;9.65;;;;;;;;;;5027330;28;20041;-87
2023/09/04 07:33:15;;;;;;;9.98;8.43;;;;;;;;;;5047009;28;20148;-87
2023/09/04 07:35:42;;;;;;;9.38;8.23;;;;;;;;;;5028323;28;20036;-87
2023/09/04 07:38:08;;;;;;;12.27;8.85;;;;;;;;;;5027056;28;20056;-87
2023/09/04 07:40:34;;;;;;;10.93;8.82;;;;;;;;;;5034313;28;20078;-87
2023/09/04 07:43:01;;;;;;;13.60;8.90;;;;;;;;;;5028256;28;20686;-87
2023/09/04 07:45:27;;;;;;;12.38;9.27;;;;;;;;;;5028364;28;20128;-87
2023/09/04 07:47:53;;;;;;;10.50;7.75;;;;;;;;;;5030189;28;20075;-88
2023/09/04 07:50:19;;;;;;;9.32;7.18;;;;;;;;;;5046696;28;20040;-88
2023/09/04 07:52:45;;;;;;;8.60;7.70;;;;;;;;;;5013526;28;20045;-87
2023/09/04 07:55:11;;;;;;;11.15;8.40;;;;;;;;;;5027902;28;20562;-87
2023/09/04 07:57:38;;;;;;;10.02;8.00;;;;;;;;;;5044276;28;20036;-86
2023/09/04 08:00:04;;;;;;;11.40;8.23;;;;;;;;;;5026140;28;20111;-87
2023/09/04 08:02:31;;;;;;;18.10;8.60;;;;;;;;;;5040678;28;20097;-87
2023/09/04 08:04:57;;;;;;;9.35;8.18;;;;;;;;;;5007039;28;20405;-86
2023/09/04 08:07:23;;;;;;;20.10;11.60;;;;;;;;;;5024492;28;20079;-87
2023/09/04 08:09:50;;;;;;;13.52;11.48;;;;;;;;;;5028690;28;20601;-87
2023/09/04 08:12:16;;;;;;;13.07;11.70;;;;;;;;;;5008887;28;20051;-87
2023/09/04 08:14:43;;;;;;;12.20;10.77;;;;;;;;;;5002159;28;21180;-86
2023/09/04 08:17:09;;;;;;;11.98;9.85;;;;;;;;;;5020945;28;20032;-86
2023/09/04 08:19:35;;;;;;;17.25;12.85;;;;;;;;;;5010127;28;20045;-86
2023/09/04 08:22:01;;;;;;;12.60;10.63;;;;;;;;;;5024569;28;20087;-87
2023/09/04 08:24:27;;;;;;;14.05;11.05;;;;;;;;;;5026140;28;20049;-87
2023/09/04 08:26:54;;;;;;;12.25;10.95;;;;;;;;;;5013978;28;20095;-87
2023/09/04 08:29:20;;;;;;;10.43;8.73;;;;;;;;;;5025867;28;20130;-86
2023/09/04 08:31:46;;;;;;;13.27;8.80;;;;;;;;;;5023692;28;20099;-87
2023/09/04 08:34:12;;;;;;;8.55;7.43;;;;;;;;;;5039317;28;20417;-88
2023/09/04 08:36:38;;;;;;;6.72;4.70;;;;;;;;;;5024267;28;20490;-88
2023/09/04 08:39:04;;;;;;;7.10;4.47;;;;;;;;;;5021454;28;20056;-87
2023/09/04 08:41:30;;;;;;;5.55;5.00;;;;;;;;;;5038228;28;20049;-87
2023/09/04 08:43:57;;;;;;;6.45;4.40;;;;;;;;;;5041834;28;20137;-88
2023/09/04 08:46:23;;;;;;;6.05;4.65;;;;;;;;;;5022251;28;20048;-89
2023/09/04 08:48:52;;;;;;;5.15;4.40;;;;;;;;;;5005768;28;20537;-88
2023/09/04 08:51:18;;;;;;;4.28;3.88;;;;;;;;;;5024571;28;20049;-88
2023/09/04 08:53:45;;;;;;;7.07;3.63;;;;;;;;;;5007944;28;20165;-88
2023/09/04 08:56:12;;;;;;;5.28;3.47;;;;;;;;;;5025123;28;20055;-88
2023/09/04 08:58:38;;;;;;;7.35;3.10;;;;;;;;;;5021468;28;20686;-88
2023/09/04 09:01:04;;;;;;;3.42;3.13;;;;;;;;;;5003892;28;20045;-87
2023/09/04 09:03:31;;;;;;;7.68;3.20;;;;;;;;;;5040877;28;20045;-88
2023/09/04 09:05:57;;;;;;;3.50;2.67;;;;;;;;;;5026767;28;20049;-87
2023/09/04 09:08:24;;;;;;;5.50;2.90;;;;;;;;;;5023318;28;20330;-86
2023/09/04 09:10:51;;;;;;;4.07;3.28;;;;;;;;;;5024961;28;20444;-88
2023/09/04 09:13:17;;;;;;;6.35;3.90;;;;;;;;;;5001419;28;20071;-86
2023/09/04 09:15:44;;;;;;;6.03;3.80;;;;;;;;;;5019246;28;20037;-89
2023/09/04 09:18:10;;;;;;;3.15;2.67;;;;;;;;;;4995365;28;20032;-87
2023/09/04 09:20:38;;;;;;;4.57;4.10;;;;;;;;;;5026778;28;20075;-88
2023/09/04 09:23:05;;;;;;;4.28;3.13;;;;;;;;;;5022869;28;20106;-87
2023/09/04 09:25:31;;;;;;;5.03;3.88;;;;;;;;;;5041007;28;20806;-89
2023/09/04 09:27:59;;;;;;;6.28;4.15;;;;;;;;;;5009878;28;20439;-87
2023/09/04 09:30:25;;;;;;;6.72;4.72;;;;;;;;;;5037580;28;20117;-88
2023/09/04 09:32:54;;;;;;;4.55;4.00;;;;;;;;;;5017932;28;20040;-88
2023/09/04 09:35:21;;;;;;;9.13;5.53;;;;;;;;;;5007435;28;20473;-88
2023/09/04 09:37:47;;;;;;;6.95;3.85;;;;;;;;;;5026944;28;20412;-88
2023/09/04 09:40:15;;;;;;;12.55;5.20;;;;;;;;;;5020768;28;20616;-87
2023/09/04 09:42:44;;;;;;;11.13;3.00;;;;;;;;;;5025414;28;20068;-86
2023/09/04 09:45:12;;;;;;;4.28;3.03;;;;;;;;;;5009100;28;20052;-89
2023/09/04 09:47:38;;;;;;;3.50;3.20;;;;;;;;;;5035824;28;20887;-86
2023/09/04 09:50:04;;;;;;;5.28;3.33;;;;;;;;;;5027103;28;20144;-86
2023/09/04 09:52:30;;;;;;;3.72;3.42;;;;;;;;;;5041131;28;20178;-87
2023/09/04 09:54:56;;;;;;;5.22;3.33;;;;;;;;;;5003865;28;20044;-88
2023/09/04 09:57:25;;;;;;;6.00;3.70;;;;;;;;;;5036566;28;20059;-89
2023/09/04 09:59:51;;;;;;;4.13;3.47;;;;;;;;;;5018210;28;20065;-86
2023/09/04 10:02:21;;;;;;;6.53;3.90;;;;;;;;;;5009816;28;20581;-89
2023/09/04 10:04:48;;;;;;;6.65;4.05;;;;;;;;;;5012321;28;20958;-88
2023/09/04 10:07:16;;;;;;;8.05;3.50;;;;;;;;;;5035450;28;20112;-88
2023/09/04 10:09:47;;;;;;;4.30;3.90;;;;;;;;;;5039858;28;20048;-88
2023/09/04 10:12:17;;;;;;;6.22;4.00;;;;;;;;;;5023914;28;20044;-89
2023/09/04 10:14:44;;;;;;;6.82;3.78;;;;;;;;;;5023414;28;20402;-88
2023/09/04 10:17:21;;;;;;;5.65;4.25;;;;;;;;;;5024159;28;21734;-88
2023/09/04 10:19:48;;;;;;;3.97;3.45;;;;;;;;;;5032975;28;20047;-87
2023/09/04 10:22:24;;;;;;;6.95;3.55;;;;;;;;;;5021712;28;20049;-89
2023/09/04 10:25:10;;;;;;;7.28;3.45;;;;;;;;;;5005260;28;20151;-77
2023/09/04 10:27:40;;;;;;;5.03;3.53;;;;;;;;;;5018977;28;20036;-76
2023/09/04 10:30:07;;;;;;;6.53;3.25;;;;;;;;;;5022080;28;20102;-77
2023/09/04 10:32:34;;;;;;;5.10;2.92;;;;;;;;;;5003324;28;20142;-78
2023/09/04 10:35:01;;;;;;;5.00;3.80;;;;;;;;;;5002267;28;20145;-77
2023/09/04 10:37:29;;;;;;;4.70;3.58;;;;;;;;;;4999068;28;20037;-77
2023/09/04 10:39:56;;;;;;;4.63;2.88;;;;;;;;;;5016210;28;20057;-77
2023/09/04 10:42:23;;;;;;;2.63;2.22;;;;;;;;;;5005434;28;20485;-78
2023/09/04 10:44:51;;;;;;;5.43;2.95;;;;;;;;;;5000134;28;20442;-78
2023/09/04 10:47:18;;;;;;;3.95;2.28;;;;;;;;;;5004745;28;21113;-78
2023/09/04 10:49:45;;;;;;;8.38;3.80;;;;;;;;;;5001229;28;20033;-77
2023/09/04 10:52:12;;;;;;;9.65;3.28;;;;;;;;;;5016707;28;20075;-78
2023/09/04 10:54:38;;;;;;;8.93;4.13;;;;;;;;;;5016579;28;20490;-78
2023/09/04 10:57:11;;;;;;;2.90;2.70;;;;;;;;;;5016286;28;21622;-78
2023/09/04 10:59:52;;;;;;;9.68;3.88;;;;;;;;;;5001576;28;20049;-78
2023/09/04 11:02:27;;;;;;;4.55;3.03;;;;;;;;;;5017562;28;20065;-79
2023/09/04 11:04:53;;;;;;;4.75;2.42;;;;;;;;;;5022131;28;20053;-79
2023/09/04 11:07:19;;;;;;;3.85;2.47;;;;;;;;;;4988652;28;20519;-78
2023/09/04 11:09:46;;;;;;;3.00;2.30;;;;;;;;;;5021033;28;20409;-79
2023/09/04 11:12:18;;;;;;;3.00;2.70;;;;;;;;;;5018078;28;20041;-79
2023/09/04 11:14:45;;;;;;;3.38;2.83;;;;;;;;;;5006432;28;20033;-79
2023/09/04 11:17:15;;;;;;;4.35;2.58;;;;;;;;;;5022679;28;20049;-79
2023/09/04 11:19:41;;;;;;;3.42;2.60;;;;;;;;;;5020834;28;20044;-79
2023/09/04 11:22:15;;;;;;;3.03;2.83;;;;;;;;;;5019823;28;20087;-79
2023/09/04 11:24:41;;;;;;;4.07;3.20;;;;;;;;;;5021282;28;20051;-79
2023/09/04 11:27:07;;;;;;;6.78;3.10;;;;;;;;;;5003264;28;20045;-79
2023/09/04 11:29:34;;;;;;;4.13;2.60;;;;;;;;;;5018895;28;20130;-80
2023/09/04 11:32:01;;;;;;;2.72;2.33;;;;;;;;;;5024402;28;20049;-78
2023/09/04 11:34:27;;;;;;;3.75;2.95;;;;;;;;;;5022190;28;20659;-79
2023/09/04 11:36:53;;;;;;;5.10;2.97;;;;;;;;;;5019613;28;20383;-79
2023/09/04 11:39:19;;;;;;;6.05;2.80;;;;;;;;;;5019047;28;20040;-79
2023/09/04 11:41:46;;;;;;;7.50;2.83;;;;;;;;;;5007565;28;20053;-80
2023/09/04 11:44:13;;;;;;;6.30;2.78;;;;;;;;;;4996930;28;20076;-79
2023/09/04 11:46:39;;;;;;;5.85;2.70;;;;;;;;;;5012283;28;20049;-78
2023/09/04 11:49:05;;;;;;;4.15;2.83;;;;;;;;;;5015630;28;20045;-78
2023/09/04 11:51:36;;;;;;;3.75;3.08;;;;;;;;;;5012497;28;20123;-77
2023/09/04 11:54:08;;;;;;;2.70;2.50;;;;;;;;;;4993148;28;20041;-76
2023/09/04 11:56:35;;;;;;;2.38;2.17;;;;;;;;;;5012945;28;20048;-78
2023/09/04 11:59:02;;;;;;;3.30;2.60;;;;;;;;;;5013265;28;20153;-79
2023/09/04 12:01:29;;;;;;;3.83;2.78;;;;;;;;;;5013332;28;20072;-79
2023/09/04 12:03:55;;;;;;;2.33;2.13;;;;;;;;;;5012229;28;21244;-79
2023/09/04 12:06:25;;;;;;;4.03;2.00;;;;;;;;;;4999771;28;20041;-77
2023/09/04 12:08:51;;;;;;;3.08;2.33;;;;;;;;;;5019743;28;20385;-78
2023/09/04 12:11:18;;;;;;;2.92;2.38;;;;;;;;;;5019666;28;20473;-78
2023/09/04 12:13:44;;;;;;;3.45;2.60;;;;;;;;;;5017979;28;20074;-77
2023/09/04 12:16:11;;;;;;;5.25;2.25;;;;;;;;;;5016490;28;20047;-78
2023/09/04 12:18:37;;;;;;;2.35;2.00;;;;;;;;;;5017342;28;20061;-77
2023/09/04 12:21:11;;;;;;;2.85;2.05;;;;;;;;;;5017251;28;20750;-78
2023/09/04 12:23:38;;;;;;;;;;;;;;;;;;5018841;28;20119;-76
2023/09/04 12:26:04;;;;;;;3.00;2.35;;;;;;;;;;5017314;28;20385;-75
2023/09/04 12:28:30;;;;;;;5.57;2.30;;;;;;;;;;5001700;28;20044;-76
2023/09/04 12:30:56;;;;;;;3.88;2.00;;;;;;;;;;5019871;28;20063;-75
2023/09/04 12:33:30;;;;;;;2.60;2.20;;;;;;;;;;5012324;28;20045;-75
2023/09/04 12:35:56;;;;;;;3.53;2.05;;;;;;;;;;5016745;28;20123;-76
2023/09/04 12:38:23;;;;;;;3.17;2.25;;;;;;;;;;5023063;28;20060;-76
2023/09/04 12:40:49;;;;;;;3.72;2.10;;;;;;;;;;5027656;28;20045;-75
2023/09/04 12:43:15;;;;;;;5.93;1.90;;;;;;;;;;5020957;28;20040;-75
2023/09/04 12:45:42;;;;;;;2.70;2.00;;;;;;;;;;5021224;28;20048;-75
2023/09/04 12:48:15;;;;;;;2.38;2.00;;;;;;;;;;5018191;28;20064;-76
2023/09/04 12:50:41;;;;;;;4.63;2.20;;;;;;;;;;5019574;28;20045;-76
2023/09/04 12:53:07;;;;;;;3.97;2.15;;;;;;;;;;5020397;28;20063;-76
2023/09/04 12:55:33;;;;;;;4.30;2.15;;;;;;;;;;5019466;28;20110;-76
2023/09/04 12:58:00;;;;;;;2.83;2.05;;;;;;;;;;5020684;28;20044;-76
2023/09/04 13:00:30;;;;;;;7.13;2.25;;;;;;;;;;5018415;28;20500;-76
2023/09/04 13:02:56;;;;;;;3.88;2.10;;;;;;;;;;5009110;28;20309;-76
2023/09/04 13:05:23;;;;;;;4.43;2.13;;;;;;;;;;5018559;28;20052;-76
2023/09/04 13:07:50;;;;;;;3.50;1.90;;;;;;;;;;5001162;28;20311;-76
2023/09/04 13:10:16;;;;;;;2.58;1.95;;;;;;;;;;5017923;28;20507;-75
2023/09/04 13:12:42;;;;;;;1.95;1.70;;;;;;;;;;5002459;28;20135;-76
2023/09/04 13:15:08;;;;;;;4.68;2.17;;;;;;;;;;5022206;28;20076;-76
2023/09/04 13:17:41;;;;;;;3.55;2.10;;;;;;;;;;5021047;28;20512;-76
2023/09/04 13:20:07;;;;;;;2.70;1.52;;;;;;;;;;5019695;28;20496;-76
2023/09/04 13:22:33;;;;;;;5.80;1.83;;;;;;;;;;5020348;28;20090;-75
2023/09/04 13:25:00;;;;;;;1.85;1.50;;;;;;;;;;5025213;28;20124;-76
2023/09/04 13:27:26;;;;;;;3.50;2.00;;;;;;;;;;5015030;28;20055;-75
2023/09/04 13:29:52;;;;;;;2.97;1.90;;;;;;;;;;5023156;28;20407;-76
2023/09/04 13:32:18;;;;;;;5.25;1.65;;;;;;;;;;5015225;28;20044;-75
2023/09/04 13:34:44;;;;;;;4.03;2.08;;;;;;;;;;5021411;28;20048;-74
2023/09/04 13:37:10;;;;;;;2.33;1.77;;;;;;;;;;5021343;28;20140;-75
2023/09/04 13:39:36;;;;;;;4.38;1.90;;;;;;;;;;5006215;28;20441;-75
2023/09/04 13:42:02;;;;;;;3.85;1.77;;;;;;;;;;5002835;28;20052;-75
2023/09/04 13:44:28;;;;;;;1.83;1.60;;;;;;;;;;5021706;28;20059;-75
2023/09/04 13:46:55;;;;;;;2.42;1.90;;;;;;;;;;5026289;28;20040;-75
2023/09/04 13:49:21;;;;;;;3.90;1.50;;;;;;;;;;5038504;28;20040;-75
2023/09/04 13:51:47;;;;;;;3.00;1.65;;;;;;;;;;5004872;28;20501;-75
2023/09/04 13:54:13;;;;;;;2.53;1.85;;;;;;;;;;5026242;28;20039;-79
2023/09/04 13:56:39;;;;;;;3.33;1.70;;;;;;;;;;5011712;28;20059;-78
2023/09/04 13:59:07;;;;;;;2.63;1.40;;;;;;;;;;5048576;28;20033;-81
2023/09/04 14:01:33;;;;;;;2.67;1.38;;;;;;;;;;4995550;28;20037;-80
2023/09/04 14:03:59;;;;;;;3.08;1.83;;;;;;;;;;5034217;28;20037;-82
2023/09/04 14:06:25;;;;;;;2.25;1.50;;;;;;;;;;5040434;28;20037;-82
2023/09/04 14:08:54;;;;;;;1.75;1.45;;;;;;;;;;5025773;28;20110;-82
2023/09/04 14:11:20;;;;;;;2.92;1.70;;;;;;;;;;5020319;28;20043;-81
2023/09/04 14:13:46;;;;;;;2.33;1.50;;;;;;;;;;5019348;28;20047;-77
2023/09/04 14:16:13;;;;;;;2.00;1.50;;;;;;;;;;5017464;28;20721;-79
2023/09/04 14:18:39;;;;;;;2.85;1.75;;;;;;;;;;5019449;28;20037;-78
2023/09/04 14:21:05;;;;;;;3.42;1.30;;;;;;;;;;5018920;28;20044;-79
2023/09/04 14:23:31;;;;;;;4.75;1.30;;;;;;;;;;5035197;28;20075;-79
2023/09/04 14:25:57;;;;;;;1.40;1.30;;;;;;;;;;5036825;28;20158;-78